34ème Rallye Terre des Cardabelles
Championnat de France des Rallyes sur Terre
1 6 BAUD Lionel/BAUD Lucie Citroën DS3 WRC A 8W 12:23,9 1
2 2 CUOQ Jean-Marie/GRANDEMANGE Marielle Citroën C4 WRC FA 8W 12:24,0 +00:00,1 +00:00,1 1
3 5 MAURIN Julien/URAL Olivier Citroën DS3 WRC A 8W 12:30,9 +00:07,0 +00:06,9 1
4 3 FERAUD Cyrille/DUCHEMIN Aymeric Citroën C4 WRC FA 8W 12:47,7 +00:23,8 +00:16,8 1
5 8 MORDACQ Arnaud/ROUX Thomas Mitsubishi Lancer Evo9 FN 4 12:52,3 +00:28,4 +00:04,6 1
6 9 PETIT Jean-Eric/MAURIN Mathieu Ford Fiesta R5 R 5 12:53,0 +00:29,1 +00:00,7 1
7 4 DURBEC Thibault/RENUCCI Jacques-Julien Citroën DS3 WRC A 8W 12:55,0 +00:31,1 +00:02,0 1
8 1 BERFA Jordan/AUGUSTIN Damien HUYNDAI i20 R5 R 5 12:58,7 +00:34,8 +00:03,7 1
9 7 SALGUES Gilles/MOUYSSET Jérôme Citroën Xsara WRC FA 8W 13:02,5 +00:38,6 +00:03,8
10 12 PELUTTIERO Thibaud/REICHENECKER Josh Mitsubishi Lancer EvoX R 4 13:15,8 +00:51,9 +00:13,3 1
11 25 MARTI Christian/NOLORGUES Rémi Mitsubishi Lancer Evo9 FN 4 13:20,7 +00:56,8 +00:04,9 1
12 36 LARIO Taisko/RYYNANEN Tatu Peugeot 208 VTI R 2 13:23,0 +00:59,1 +00:02,3 3
13 24 CHAYNES Gary/TRIBOUT Christian Mitsubishi Lancer Evo9 FN 4 13:25,8 +01:01,9 +00:02,8 1
14 16 CLARETY Jérôme/LACOSTE Vincent Mitsubishi Lancer EvoX R 4 13:26,6 +01:02,7 +00:00,8
15 31 LLARENA Efren/FERNANDEZ Sara Peugeot 208 VTI R 2 13:29,2 +01:05,3 +00:02,6 3
16 30 PELLIER Laurent/NEYRET-GIGOT Benoît Peugeot 208 VTI R 2 13:29,2 +01:05,3 3
17 40 BLANC Francois-Xavier/DE TURCKHEIM Gilles Peugeot 208 VTI R 2 13:30,1 +01:06,2 +00:00,9 1 2 3
18 35 BOSCH Florentin/TEMPIER Romain Peugeot 208 VTI R 2 13:31,8 +01:07,9 +00:01,7 3
19 33 PINHEIRO Karl-Alexandre/LE FLOCH Franck Peugeot 208 VTI R 2 13:36,5 +01:12,6 +00:04,7 3
20 11 CECCHI Philippe/LETOURNEAU Lara Citroën DS3 R5 R 5 13:39,1 +01:15,2 +00:02,6
21 32 SAHILA Aki/SUORSA Rami Peugeot 208 VTI R 2 13:39,3 +01:15,4 +00:00,2 3
22 91 DUNAND Alexandre/BROUZE Olivier Subaru Impreza Sti FN 4 13:43,0 +01:19,1 +00:03,7
23 72 GIORDANENGO Jimmy/DELAMOTTE Alexis Mitsubishi Lancer Evo9 FA 8 13:43,8 +01:19,9 +00:00,8
24 26 JULIA David/AUBERTIN Ludovic Peugeot 206 Rc F2 14 13:47,3 +01:23,4 +00:03,5 1 2
25 14 MORDACQ Laurent/MORTIER Hervé Mitsubishi Lancer Evo9 R 4 13:49,2 +01:25,3 +00:01,9 1
26 34 MAISANO Brandon/PEBEYRE Pierre Peugeot 208 VTI R 2 13:53,6 +01:29,7 +00:04,4 3
27 21 ASTIER Loïc/DECLERCK Loïc Citroën DS3 R3 R 3 13:54,8 +01:30,9 +00:01,2 1 2
28 37 BAUDOIN Thomas/MILLET Kévin Peugeot 208 VTI R 2 14:00,8 +01:36,9 +00:06,0 3
29 78 MOREL Jean-Luc/GIDEL Philippe Subaru Impreza WRX FN 4 14:01,0 +01:37,1 +00:00,2
30 85 CONDAMINES Florian/CAVAILLES Aurélien Subaru Impreza N 4 14:01,9 +01:38,0 +00:00,9
31 19 SALIN Daniel/SALIN Brigitte Subaru Impreza WRX R 4 14:03,8 +01:39,9 +00:01,9
32 27 MASCLAUX Arnaud/MOULIN Alexandre Renault Clio Ragnotti F2 14 14:11,7 +01:47,8 +00:07,9 1 2
33 90 VEYRARD Didier/TARDY Vincent Subaru Impreza STI FN 4 14:14,2 +01:50,3 +00:02,5
34 39 MOLLARD Alexandre/EYMIN Nicolas Peugeot 208 VTI R 2 14:15,1 +01:51,2 +00:00,9 3
35 115 FRANCESCHI Mathieu/MANZO Benoît Citroën C2 R2 R 2 14:15,3 +01:51,4 +00:00,2
36 17 DESANGLES Yanis/THERON Nicolas Subaru Impreza STI R 4 14:15,7 +01:51,8 +00:00,4
37 41 FRANCESCHI Jean-Baptiste/COURBON Romain Ford Fiesta R2J R 2 14:17,2 +01:53,3 +00:01,5 4
38 43 FOURMAUX Adrien/PARENT Kévin Ford Fiesta R2J R 2 14:17,2 +01:53,3 4
39 73 PARISI-FOUQUE Alain/MARSILY Eric Subaru Impreza FA 8 14:17,5 +01:53,6 +00:00,3
40 64 CROS Olivier/PRIVAT Christophe Subaru Impreza FA 8 14:18,8 +01:54,9 +00:01,3
41 110 MAUREL Alain/MAUREL Lucile Citroën Saxo T4 FA 6K 14:20,6 +01:56,7 +00:01,8
42 47 CHANTRIAUX Audric/GAREL Romain Ford Fiesta R2J R 2 14:25,1 +02:01,2 +00:04,5 4
43 105 GILHODES Damien/GILHODES Jean-Louis Citroën Saxo T4 FA 6K 14:25,2 +02:01,3 +00:00,1
44 81 PUEL Gérard/PUEL Caroline Mitsubishi Lancer Evo8 FN 4 14:27,2 +02:03,3 +00:02,0
45 88 RAYMOND Pierre/CAUSSE Cédric Mitsubishi Lancer Evo9 FN 4 14:28,1 +02:04,2 +00:00,9
46 28 VITAL Jean-Pierre/DECOUZON Pierre Citroën Saxo VTS F2 13 14:28,5 +02:04,6 +00:00,4 1 2
47 44 CARTIER Victor/CRAEN Fabien Ford Fiesta R2J R 2 14:28,8 +02:04,9 +00:00,3 4
48 70 TARDY Guillaume/CHOUDEY Marc-Emilien Subaru Impreza FA 8 14:30,6 +02:06,7 +00:01,8
49 56 EYDOUX Laurent/MOUTOT Olivier Peugeot 206 XS FA 6K 14:34,5 +02:10,6 +00:03,9
50 82 SOUMAORO Moriféré/JACQUELIN Pierre Mitsubishi Lancer Evo10 N 4 14:35,0 +02:11,1 +00:00,5
51 49 CORNU Alexandre/FASSOLA Thibault Ford Fiesta R2J R 2 14:35,2 +02:11,3 +00:00,2 4
52 92 BLANCK Lionel/BLANCK Arnaud Peugeot 206 Rc F2 14 14:36,0 +02:12,1 +00:00,8
53 106 LUCADOU Dominique/LUCADOU Joris Citroën Saxo T4 FA 6K 14:40,2 +02:16,3 +00:04,2
54 48 GIUSTI Igor/DINI Gilbert Ford Fiesta R2J R 2 14:42,1 +02:18,2 +00:01,9 4
55 114 ARTIERES Nicolas/VINCENT Frédéric Peugeot 208 VTI R 2 14:44,3 +02:20,4 +00:02,2
56 89 BLANC Jean-Francois/ROL Evelyne Mitsubishi Lancer Evo8 FN 4 14:44,4 +02:20,5 +00:00,1
57 109 MAS Paul/BERTRAND Nathalie Citroën Saxo T4 FA 6K 14:48,9 +02:25,0 +00:04,5
58 77 CALMELS Pierre/BONALDI Xavier Citroën DS3 R3 R 3 14:49,9 +02:26,0 +00:01,0
59 29 SABATIER Florent/SANTIAGO Thomas Peugeot 106 S16 FA 6 14:51,5 +02:27,6 +00:01,6 1 2
60 23 CHAPUS Serge/FAVREAU Mathieu Citroën DS3 R3 R 3 14:52,9 +02:29,0 +00:01,4 1 2
61 62 MAUREL Yves/MAUREL Maxime Peugeot 207 S2000 FA 7S 14:53,3 +02:29,4 +00:00,4
62 84 FONTAINE Fabien/BARD Jérôme Mitsubishi Lancer Evo5 FN 4 14:54,0 +02:30,1 +00:00,7
63 51 MOUSTIN Doriann/DESNOYERS Alexia Ford Fiesta R2J R 2 14:54,2 +02:30,3 +00:00,2 4
64 116 JOUINES Jean/CHABBERT Martin Opel Adam Rally R FR2 14:58,9 +02:35,0 +00:04,7
65 45 GANDELLI David/BIAGETTI Loan Ford Fiesta R2J R 2 14:59,4 +02:35,5 +00:00,5 4
66 87 CALAMEL Carol/CALAMEL Amélie Subaru Impreza FN 4 15:00,3 +02:36,4 +00:00,9
67 20 MORAES Henri/MORAES Anthony Subaru Impreza WRX FA 8 15:00,7 +02:36,8 +00:00,4 1
68 86 ECK Jean-Luc/ECK Aurélien Subaru Impreza WRX FN 4 15:00,8 +02:36,9 +00:00,1
69 120 BOUZID Lilian/VERGNES Antony Peugeot 306 S16 FA 7 15:04,3 +02:40,4 +00:03,5
70 46 CURIOZ Benjamin/BEERENS Pierre Ford Fiesta R2J R 2 15:04,6 +02:40,7 +00:00,3 4
71 99 MORARD Philippe/GROULIER Vincent Citroën ZX 16V F2 14 15:05,1 +02:41,2 +00:00,5
72 142 CHENEVAY Rémy/ESCARTEFIGUE Jules Citroën Saxo VTS FA 6 15:05,9 +02:42,0 +00:00,8
73 63 LOPEZ Etienne/MERCIER Marjorie Subaru Impreza WRX FA 8 15:06,6 +02:42,7 +00:00,7
74 125 PANSARD Olivier/GIOVANELLI Christophe Peugeot 205 GTI FA 7 15:06,7 +02:42,8 +00:00,1
75 128 LESCURE Philippe/ESCAICH Bertrand Peugeot 306 S16 FA 7 15:09,6 +02:45,7 +00:02,9
76 66 MARON-GIRARD Alain/GRENIER Bernard Mitsubishi Lancer Evo9 FA 8 15:11,8 +02:47,9 +00:02,2
77 108 THEROND Nicolas/BAFFALIE François Citroën Saxo T4 FA 6K 15:12,8 +02:48,9 +00:01,0
78 68 PASQUALINI Pierre/OLLARI Gérard B.M.W. 325i FA 8 15:13,1 +02:49,2 +00:00,3
79 50 PONTAL Julien/BARRAL Florian Ford Fiesta R2J R 2 15:13,5 +02:49,6 +00:00,4 4
80 98 ROUCOULY Mathieu/MONNERON Lionel Peugeot 309 GTI F2 14 15:15,5 +02:51,6 +00:02,0
81 126 ROCHER Arnaud/PAULHAN Sabine Renault Clio RS FA 7 15:16,8 +02:52,9 +00:01,3
82 67 MONNIER Alain/JAMAGOTCHIAN Cyril Subaru Impreza Sti FA 8 15:18,2 +02:54,3 +00:01,4
83 104 MARCOBAL Thierry/BOYER Jean-Francois Citroën Saxo T4 FA 6K 15:18,3 +02:54,4 +00:00,1
84 124 VIALA Jérôme/ROUBY Nathan Peugeot 206 Rc FA 7 15:20,8 +02:56,9 +00:02,5
85 100 MOULIN François/BONNET Dorine Renault Clio RS F2 14 15:23,3 +02:59,4 +00:02,5
86 53 VIAROUGE David/BENZAL Aurélien Ford Fiesta R2J R 2 15:23,4 +02:59,5 +00:00,1 4
87 95 BONALDI Pierre-Benoit/CANTANHEDE Bruno Peugeot 306 S16 F2 14 15:25,4 +03:01,5 +00:02,0
88 118 GABEREL Nicolas/VILANOVA Teddy Peugeot 208 VTI R 2 15:25,9 +03:02,0 +00:00,5
89 54 EMANUEL Maxence/DALMASSO Pauline Ford Fiesta R2J R 2 15:26,6 +03:02,7 +00:00,7 4
90 65 JARLAN Maxime/CAMALY Thierry Subaru Impreza FA 8 15:28,7 +03:04,8 +00:02,1
91 140 RALITE Christophe/ABBAL Marie Peugeot 106 S16 FA 6 15:31,8 +03:07,9 +00:03,1
92 107 CHASSANIOL Jacky/CUBIZOLLES Arnaud Citroën Saxo T4 FA 6K 15:33,9 +03:10,0 +00:02,1
93 74 ROUGIER Régis/SUBE Ludovic Subaru Impreza WRX FA 8 15:35,2 +03:11,3 +00:01,3
94 129 BRAJON Ludovic/SALANSON Thierry Renault Clio RS FN 3 15:43,4 +03:19,5 +00:08,2
95 55 GILLET Nicolas/CORIA Alexandre Ford Fiesta R2J R 2 15:46,9 +03:23,0 +00:03,5 4
96 83 CAMPAGNOLI Gabriele/CANTON Tania Subaru Impreza STI N 4 15:50,3 +03:26,4 +00:03,4
97 52 VIANO Allison/CHOL Cecilia Ford Fiesta R2J R 2 15:51,0 +03:27,1 +00:00,7 4
98 135 GERMAIN Alex/POIROT Edgard Peugeot 205 GTI F2 13 15:51,8 +03:27,9 +00:00,8
99 137 GELAS Fabrice/BARRACHIN Florian Peugeot 106 S16 F2 13 15:52,5 +03:28,6 +00:00,7
100 133 BRENGUES Jean-Marie/BRENGUES Mélanie Peugeot 205 GTI F2 13 15:53,0 +03:29,1 +00:00,5
101 132 ARTZNER Mathieu/GIRARD Vincent Peugeot 206 XS F2 13 15:55,5 +03:31,6 +00:02,5
102 127 TROMEL Frank/TROMEL Corinne Peugeot 206 Rc FA 7 15:55,6 +03:31,7 +00:00,1
103 111 ESPALIEU David/NUNES Robert Citroën Saxo T4 FA 6K 15:57,0 +03:33,1 +00:01,4
104 123 FRELAUT Yohann/CASSAGNADE Pascal Peugeot 206 Rc FA 7 16:02,7 +03:38,8 +00:05,7
105 112 BIAU Jean-Luc/BROLIQUET Eric Peugeot 206 XS FA 6K 16:03,5 +03:39,6 +00:00,8
106 103 BESSON Jacques/PAGES Cécile Citroën Saxo T4 FA 6K 16:06,2 +03:42,3 +00:02,7
107 139 MOLINA Gerome/RENARD Aurélien Dacia Logan F2 13 16:07,6 +03:43,7 +00:01,4
108 121 GAGNEUR Hervé/DESNOYERS Jean-Philippe Peugeot 306 S16 FA 7 16:09,6 +03:45,7 +00:02,0
109 59 CLEMENT Frédéric/COSTES François Peugeot 206 Rc F2 14 16:11,1 +03:47,2 +00:01,5 1 2
110 93 CHARRIE Yoann/JAMMES Yannick Peugeot 206 Rc F2 14 16:13,9 +03:50,0 +00:02,8
111 117 LEYGUE Laurent/GEORGE Nicolas Peugeot 208 VTI R 2 16:15,1 +03:51,2 +00:01,2
112 80 BAZIN Jean-Marie/BORNE Damien Mitsubishi Lancer Evo9 FN 4 16:16,9 +03:53,0 +00:01,8
113 61 BELLIARDO Daniel/BRAQUET Jean-Baptiste Peugeot 306 S16 FN 3 16:30,4 +04:06,5 +00:13,5 1 2
114 131 PIQUERAS Jérôme/BLANC Morgan Peugeot 205 GTI F2 13 16:45,4 +04:21,5 +00:15,0
115 136 MAJOREL Clément/GINESTE Elsa Peugeot 106 S16 F2 13 16:46,3 +04:22,4 +00:00,9
116 134 GELY Michel/VALENTIN Cédric Peugeot 206 XS F2 13 16:47,5 +04:23,6 +00:01,2
117 144 PORTAL Kévin/YONNET Fabien Ford Fiesta R1 R 1 16:51,1 +04:27,2 +00:03,6
118 102 VIDAL Marc/MONTARON Loïc Peugeot 309 GTI 16S F2 14 16:54,6 +04:30,7 +00:03,5
119 122 GUILLON Jean-Luc/NEGRE Jean-Pierre Peugeot 206 GT FA 7 16:57,0 +04:33,1 +00:02,4
120 147 AGNIEL Damien/PAYSAN Jean-Paul Peugeot 106 XSI FN 2 16:58,9 +04:35,0 +00:01,9
121 138 PICARD Erick/LEBRETTON Amandine Dacia Logan F2 13 16:59,0 +04:35,1 +00:00,1
122 94 MARTIN Gary/FACCIO Alexandra Peugeot 106 S16 F2 13 17:06,4 +04:42,5 +00:07,4
123 119 EXBRAYAT Jérôme/SAGNARD Franck Ford Fiesta R2 R 2 17:16,4 +04:52,5 +00:10,0
124 96 BARAT DA COSTA RODRIGO Tony/LOPEZ Yannick B.M.W. 320i F2 14 17:29,7 +05:05,8 +00:13,3
125 146 FRANCOIS Léa/FRANCOIS Solene Peugeot 106 S16 FN 2 17:48,0 +05:24,1 +00:18,3
126 145 LATIEZE Yvan/GOUY Cindy Peugeot 106 S16 FN 2 18:29,8 +06:05,9 +00:41,8
127 143 POUGET Dorian/BERNARD Kévin Peugeot 106 XSI FA 5K 18:35,6 +06:11,7 +00:05,8
128 149 BES Yves/BURGUIERE Alexis Peugeot 106 XR F2 11 18:39,0 +06:15,1 +00:03,4
129 148 LEMAIRE Yoann/POMAREDE Marc Citroën Saxo VTS F2 12 19:49,0 +07:25,1 +01:10,0
Clt Equipage Voiture Gr/Cl Temps Ecart 1er Ecart préc. Catégories
Commentaires: © PatricK Soft  
(Temps forfaitaires=couleur bleue)
Classés:129

Epreuve: Groupe: Catégorie:

 
Retour
Classement après ES1-Le Camp 1 (21.000 km)